Latest Coastal Weather Observations for Maroochydore

IDQ60701

Issued at 9:52 pm EST Monday 25 July 2016 (issued every 10 minutes, with the page automatically refreshed every 10 minutes)

About coastal observations | Map of coastal stations | Coastal observations for QLD | Marine services | Other Formats
Station Details ID: 040861 Name: SUNSHINE COAST AIRPORT Lat: -26.60 Lon: 153.09 Height: 3.3 m
Data from the previous 72 hours. | See also: Recent months at Maroochydore
Date/Time
EST
Temp
°C
Wind Pressure Rain since
9am
mm
Weather Cloud Vis
km
Sea
Height
m
Swell
Dir  Spd
kts
Gust
kts
hPa Trend Height
m
Period
s
Dir
25/09:30pm 9.1 W 4 5 1018.3 - 0.0 - - 10 - - - -
25/09:00pm 9.1 W 5 5 1018.0 - 0.0 - - 10 - - - -
25/08:30pm 9.9 WNW 4 5 1017.7 - 0.0 - - 10 - - - -
25/08:00pm 10.2 WNW 6 7 1017.8 - 0.0 - - 10 - - - -
25/07:30pm 9.7 WNW 4 6 1017.5 - 0.0 - - 10 - - - -
25/07:00pm 11.4 SW 3 4 1017.3 - 0.0 - - 10 - - - -
25/06:30pm 11.7 NW 4 5 1016.7 - 0.0 - - 10 - - - -
25/06:00pm 13.6 NNW 3 4 1016.4 - 0.0 - - 10 - - - -
25/05:30pm 14.8 NNE 6 7 1016.1 - 0.0 - - 10 - - - -
25/05:00pm 17.0 NE 7 9 1015.9 - 0.0 - - 10 - - - -
25/04:30pm 18.4 ENE 8 9 1015.7 - 0.0 - - 10 - - - -
25/04:00pm 20.1 ENE 7 9 1015.4 - 0.0 - - 10 - - - -
25/03:30pm 20.5 NNE 10 12 1015.2 - 0.0 - - 10 - - - -
25/03:00pm 22.5 W 4 8 1015.2 - 0.0 - - 10 - - - -
25/02:30pm 22.8 SW 5 9 1015.2 - 0.0 - - 10 - - - -
25/02:00pm 22.7 SW 7 11 1015.4 - 0.0 - - 10 - - - -
25/01:30pm 22.4 SW 8 12 1015.8 - 0.0 - - 10 - - - -
25/01:00pm 22.1 SW 7 12 1015.9 - 0.0 - - 10 - - - -
25/12:30pm 22.2 WSW 5 9 1016.2 - 0.0 - - 10 - - - -
25/12:00pm 21.3 SW 6 9 1016.8 - 0.0 - - 10 - - - -
25/11:30am 20.6 WSW 7 14 1017.5 - 0.0 - - 10 - - - -
25/11:00am 20.0 SW 6 10 1017.9 - 0.0 - - 10 - - - -
25/10:30am 19.2 S 6 10 1018.3 - 0.0 - - 10 - - - -
25/10:00am 19.3 S 6 11 1018.7 - 0.0 - - 10 - - - -
25/09:30am 18.2 SSW 6 8 1018.8 - 0.0 - - 10 - - - -
25/09:00am 17.2 S 7 8 1018.7 - 0.0 - - 10 - - - -
25/08:30am 15.6 S 7 9 1018.4 - 0.0 - - 10 - - - -
25/08:00am 13.6 CALM 0 0 1018.2 - 0.0 - - 10 - - - -
25/07:30am 11.8 SW 2 4 1017.7 - 0.0 - - 10 - - - -
25/07:00am 10.1 SW 4 6 1017.5 - 0.0 - - 10 - - - -
25/06:30am 10.5 CALM 0 0 1017.0 - 0.0 - - 10 - - - -
25/06:00am 10.4 W 2 3 1016.6 - 0.0 - - 10 - - - -
25/05:30am 10.4 WSW 4 5 1016.1 - 0.0 - - 10 - - - -
25/05:00am 10.3 S 4 5 1015.8 - 0.0 - - 10 - - - -
25/04:30am 9.9 WNW 7 9 1015.4 - 0.0 - - 10 - - - -
25/04:00am 9.5 W 5 7 1015.1 - 0.0 - - 10 - - - -
25/03:30am 9.8 W 3 5 1015.1 - 0.0 - - 10 - - - -
25/03:00am 10.1 WSW 4 6 1015.2 - 0.0 - - 10 - - - -
25/02:30am 9.7 W 5 5 1015.1 - 0.0 - - 10 - - - -
25/02:00am 9.8 WSW 5 5 1015.3 - 0.0 - - 10 - - - -
25/01:30am 10.3 WSW 5 6 1015.3 - 0.0 - - 10 - - - -
25/01:00am 9.5 NW 4 5 1015.3 - 0.0 - - 10 - - - -
25/12:30am 9.3 SW 3 4 1015.6 - 0.0 - - 10 - - - -
25/12:00am 10.2 SW 3 3 1015.6 - 0.0 - - 10 - - - -
 
Date/Time
EST
Temp
°C
Wind Pressure Rain since
9am
mm
Weather Cloud Vis
km
Sea
Height
m
Swell
Dir  Spd
kts
Gust
kts
hPa Trend Height
m
Period
s
Dir
24/11:30pm 10.4 SW 4 5 1015.5 - 0.0 - - 10 - - - -
24/11:00pm 10.2 W 4 5 1015.4 - 0.0 - - 10 - - - -
24/10:30pm 10.3 WNW 5 6 1015.5 - 0.0 - - 10 - - - -
24/10:00pm 10.5 W 6 7 1015.4 - 0.0 - - 10 - - - -
24/09:30pm 10.6 W 4 5 1015.5 - 0.0 - - 10 - - - -
24/09:00pm 10.1 WSW 3 4 1015.4 - 0.0 - - 10 - - - -
24/08:30pm 11.3 WSW 4 5 1015.4 - 0.0 - - 10 - - - -
24/08:00pm 10.8 WSW 3 4 1015.1 - 0.0 - - 10 - - - -
24/07:30pm 11.7 WSW 4 5 1014.9 - 0.0 - - 10 - - - -
24/07:00pm 12.0 W 2 5 1014.5 - 0.0 - - 10 - - - -
24/06:30pm 13.0 W 4 4 1014.3 - 0.0 - - 10 - - - -
24/06:00pm 14.4 WNW 3 4 1014.0 - 0.0 - - 10 - - - -
24/05:30pm 15.4 N 3 4 1013.7 - 0.0 - - 10 - - - -
24/05:00pm 17.1 NE 6 7 1013.3 - 0.0 - - 10 - - - -
24/04:30pm 18.4 ENE 5 7 1013.0 - 0.0 - - 10 - - - -
24/04:00pm 19.9 ENE 6 8 1013.2 - 0.0 - - 10 - - - -
24/03:30pm 20.3 ENE 7 8 1013.2 - 0.0 - - 10 - - - -
24/03:00pm 20.9 ENE 7 8 1013.3 - 0.0 - - 10 - - - -
24/02:30pm 21.8 ENE 7 10 1013.4 - 0.0 - - 10 - - - -
24/02:00pm 22.1 ENE 7 9 1013.8 - 0.0 - - 10 - - - -
24/01:30pm 22.2 ENE 9 11 1014.2 - 0.0 - - 10 - - - -
24/01:00pm 21.2 E 9 11 1014.4 - 0.0 - - 10 - - - -
24/12:30pm 21.6 ESE 9 11 1014.6 - 0.0 - - 10 - - - -
24/12:00pm 21.3 ESE 10 11 1015.3 - 0.0 - - 10 - - - -
24/11:30am 21.8 SE 8 11 1015.8 - 0.0 - - 10 - - - -
24/11:00am 21.3 S 6 9 1016.2 - 0.0 - - 10 - - - -
24/10:30am 20.5 WSW 5 8 1016.7 - 0.0 - - 10 - - - -
24/10:00am 19.3 SW 6 8 1016.8 - 0.0 - - 10 - - - -
24/09:30am 18.6 WSW 5 7 1017.0 - 0.0 - - 10 - - - -
24/09:00am 17.7 WSW 6 8 1017.2 - 0.0 - - 10 - - - -
24/08:30am 15.6 W 5 8 1016.9 - 0.0 - - 10 - - - -
24/08:00am 12.7 W 5 6 1016.8 - 0.0 - - 10 - - - -
24/07:30am 10.7 W 4 4 1016.6 - 0.0 - - 10 - - - -
24/07:00am 8.1 SE 1 6 1016.2 - 0.0 - - 8 - - - -
24/06:30am 7.7 CALM 0 0 1015.4 - 0.0 - - 10 - - - -
24/06:00am 7.7 CALM 0 0 1014.9 - 0.0 - - 10 - - - -
24/05:30am 8.2 CALM 0 0 1014.4 - 0.0 - - 10 - - - -
24/05:00am 8.9 CALM 0 0 1013.9 - 0.0 - - 10 - - - -
24/04:30am 10.1 CALM 0 2 1013.6 - 0.0 - - 10 - - - -
24/04:00am 11.7 CALM 0 5 1013.4 - 0.0 - - 10 - - - -
24/03:30am 12.7 WSW 5 6 1013.2 - 0.0 - - 10 - - - -
24/03:00am 13.0 S 9 11 1013.4 - 0.0 - - 10 - - - -
24/02:30am 12.7 SSE 5 7 1013.4 - 0.0 - - 10 - - - -
24/02:00am 11.3 W 4 4 1013.3 - 0.0 - - 10 - - - -
24/01:30am 12.5 SW 4 5 1013.3 - 0.0 - - 10 - - - -
24/01:00am 12.7 SW 5 6 1013.4 - 0.0 - - 10 - - - -
24/12:30am 12.9 SSW 4 6 1013.5 - 0.0 - - 10 - - - -
24/12:00am 13.7 CALM 0 0 1013.3 - 0.0 - - 10 - - - -
 
Date/Time
EST
Temp
°C
Wind Pressure Rain since
9am
mm
Weather Cloud Vis
km
Sea
Height
m
Swell
Dir  Spd
kts
Gust
kts
hPa Trend Height
m
Period
s
Dir
23/11:30pm 16.6 SSW 4 6 1013.0 - 0.0 - - 10 - - - -
23/11:00pm 16.7 SW 6 7 1012.9 - 0.0 - - 7 - - - -
23/10:30pm 17.9 SW 6 7 1012.7 - 0.0 - - 10 - - - -
23/10:00pm 18.6 SSW 8 10 1012.6 - 0.0 - - 10 - - - -
23/09:30pm 16.9 SSW 6 7 1012.2 - 0.0 - - 10 - - - -
23/09:00pm 16.6 SSW 4 5 1011.7 - 0.0 - - 10 - - - -
23/08:30pm 17.6 WSW 5 6 1011.4 - 0.0 - - 10 - - - -
23/08:00pm 18.0 W 6 6 1011.2 - 0.0 - - 10 - - - -
23/07:30pm 18.7 WNW 6 6 1010.9 - 0.0 - - 10 - - - -
23/07:00pm 18.7 NW 4 5 1010.5 - 0.0 - - 10 - - - -
23/06:30pm 20.2 WNW 4 5 1010.1 - 0.0 - - 10 - - - -
23/06:00pm 21.8 WNW 4 5 1009.7 - 0.0 - - 10 - - - -
23/05:30pm 23.1 WNW 5 7 1009.3 - 0.0 - - 10 - - - -
23/05:00pm 25.0 W 7 9 1009.0 - 0.0 - - 10 - - - -
23/04:30pm 26.7 W 9 13 1008.7 - 0.0 - - 10 - - - -
23/04:00pm 28.6 W 10 14 1008.3 - 0.0 - - 10 - - - -
23/03:30pm 29.2 W 13 21 1008.0 - 0.0 - - 10 - - - -
23/03:00pm 29.7 W 13 20 1007.8 - 0.0 - - 10 - - - -
23/02:30pm 30.0 W 13 20 1007.6 - 0.0 - - 10 - - - -
23/02:00pm 30.6 W 13 22 1007.6 - 0.0 - Partly cloudy 10 - - - -
23/01:30pm 30.8 W 12 18 1007.7 - 0.0 - Partly cloudy 10 - - - -
23/01:00pm 30.6 WNW 11 16 1008.0 - 0.0 - Partly cloudy 10 - - - -
23/12:30pm 30.4 WNW 11 17 1008.3 - 0.0 - Partly cloudy 10 - - - -
23/12:00pm 29.5 NW 12 17 1008.7 - 0.0 - - 10 - - - -
23/11:30am 28.8 NNW 10 16 1009.3 - 0.0 - - 10 - - - -
23/11:00am 27.9 NNW 10 16 1010.0 - 0.0 - - 10 - - - -
23/10:30am 27.1 NNW 8 13 1010.5 - 0.0 - - 10 - - - -
23/10:00am 25.3 NNW 8 14 1011.1 - 0.0 - - 10 - - - -
23/09:30am 24.1 NNW 10 13 1011.6 - 0.0 - - 10 - - - -
23/09:00am 22.5 NNW 9 11 1011.8 - 0.0 - Partly cloudy 10 - - - -
23/08:30am 21.1 NW 9 13 1011.8 - 0.0 - Partly cloudy 10 - - - -
23/08:00am 21.2 WNW 8 12 1011.8 - 0.0 - Partly cloudy 10 - - - -
23/07:30am 19.6 NW 8 11 1011.5 - 0.0 - Cloudy 10 - - - -
23/07:00am 19.2 NW 8 13 1011.4 - 0.0 - Cloudy 10 - - - -
23/06:30am 19.1 NW 7 11 1011.1 - 0.0 - Cloudy 10 - - - -
23/06:00am 18.9 NW 8 13 1011.0 - 0.0 - Cloudy 10 - - - -
23/05:30am 18.8 WNW 8 11 1010.9 - 0.0 - Cloudy 10 - - - -
23/05:00am 18.5 NNW 7 10 1010.7 - 0.0 - Cloudy 10 - - - -
23/04:30am 18.2 NW 7 9 1010.7 - 0.0 - Cloudy 10 - - - -
23/04:00am 18.1 NW 8 11 1010.6 - 0.0 - Cloudy 10 - - - -
23/03:30am 17.6 NW 6 8 1010.7 - 0.0 - Partly cloudy 10 - - - -
23/03:00am 17.3 WNW 6 8 1011.0 - 0.0 - - 10 - - - -
23/02:30am 17.0 WNW 6 8 1010.8 - 0.0 - - 10 - - - -
23/02:00am 17.1 NW 6 8 1010.9 - 0.0 - - 10 - - - -
23/01:30am 16.9 NW 6 7 1011.2 - 0.0 - - 10 - - - -
23/01:00am 17.4 NNW 7 9 1011.4 - 0.0 - - 10 - - - -
23/12:30am 17.5 NNW 7 9 1011.7 - 0.0 - - 10 - - - -
23/12:00am 17.6 NNW 7 9 1011.9 - 0.0 - - 10 - - - -
 
Date/Time
EST
Temp
°C
Wind Pressure Rain since
9am
mm
Weather Cloud Vis
km
Sea
Height
m
Swell
Dir  Spd
kts
Gust
kts
hPa Trend Height
m
Period
s
Dir
22/11:30pm 17.6 NNW 7 8 1012.1 - 0.0 - - 10 - - - -
22/11:00pm 17.9 NNW 7 9 1012.2 - 0.0 - - 10 - - - -
22/10:30pm 18.2 NNW 7 9 1012.3 - 0.0 - - 10 - - - -
22/10:00pm 18.4 NW 7 10 1012.4 - 0.0 - - 10 - - - -

Other Formats:

Comma delimited format used in spreadsheet applications
http://www.bom.gov.au/fwo/IDQ60701/IDQ60701.94569.axf

JavaScript Object Notation format (JSON) in row-major order
http://www.bom.gov.au/fwo/IDQ60701/IDQ60701.94569.json